Time;durP1;ratioP1;P1;durP2;ratioP2;P2;SDS_P1;SDS_P2;PMS_P1;PMS_P2;Temp;Humidity;BMP_temperature;BMP_pressure;BME280_temperature;BME280_humidity;BME280_pressure;Samples;Min_cycle;Max_cycle;Signal;HPM_P1;HPM_P2
2024/04/16 00:00:35;;;;;;;1.00;0.50;;;;;;;5.31;96.00;95051.75;5493382;26;20700;-86
2024/04/16 00:03:03;;;;;;;2.00;0.40;;;;;;;5.19;96.53;95055.97;5492623;26;20237;-86
2024/04/16 00:05:29;;;;;;;1.17;0.33;;;;;;;5.27;96.78;95040.13;5492103;26;20236;-86
2024/04/16 00:08:01;;;;;;;1.60;0.40;;;;;;;5.21;96.85;95036.50;5494136;26;20284;-86
2024/04/16 00:10:26;;;;;;;1.97;0.40;;;;;;;5.24;97.27;95043.94;5497025;26;20237;-86
2024/04/16 00:12:55;;;;;;;0.73;0.30;;;;;;;4.99;97.23;95049.91;5499549;26;20236;-86
2024/04/16 00:15:21;;;;;;;2.40;0.50;;;;;;;4.96;98.87;95039.84;5493974;26;20229;-87
2024/04/16 00:17:50;;;;;;;4.63;0.73;;;;;;;5.21;98.99;95030.47;5495743;26;20275;-86
2024/04/16 00:20:16;;;;;;;1.97;0.40;;;;;;;5.13;98.38;95017.63;5495370;26;20271;-86
2024/04/16 00:22:45;;;;;;;2.87;0.60;;;;;;;5.23;98.20;95018.00;5493882;26;20263;-86
2024/04/16 00:25:13;;;;;;;7.07;0.90;;;;;;;5.13;98.07;95015.81;5494088;26;20260;-86
2024/04/16 00:27:42;;;;;;;2.43;0.60;;;;;;;5.10;98.59;94994.50;5492683;26;20248;-87
2024/04/16 00:30:09;;;;;;;1.90;0.50;;;;;;;5.32;97.92;95028.06;5492471;26;20574;-86
2024/04/16 00:32:37;;;;;;;1.83;0.50;;;;;;;5.20;97.58;95031.47;5494172;26;20237;-86
2024/04/16 00:35:04;;;;;;;4.80;0.67;;;;;;;4.92;98.30;95025.59;5491724;26;20233;-87
2024/04/16 00:37:32;;;;;;;2.43;0.50;;;;;;;5.05;98.34;95023.81;5493780;26;20252;-87
2024/04/16 00:39:58;;;;;;;1.43;0.50;;;;;;;5.12;98.14;95013.38;5495760;26;20587;-86
2024/04/16 00:42:30;;;;;;;4.87;0.70;;;;;;;5.09;97.84;94992.94;5494087;26;20228;-86
2024/04/16 00:44:56;;;;;;;7.87;0.93;;;;;;;5.09;98.27;95003.38;5492319;26;20232;-86
2024/04/16 00:47:24;;;;;;;2.23;0.70;;;;;;;5.10;98.68;95024.03;5494295;26;20236;-86
2024/04/16 00:49:50;;;;;;;2.07;0.50;;;;;;;4.85;98.99;95036.81;5492549;26;20237;-86
2024/04/16 00:52:18;;;;;;;2.67;0.73;;;;;;;4.80;100.00;95027.97;5492265;26;20247;-86
2024/04/16 00:54:44;;;;;;;1.07;0.60;;;;;;;4.85;100.00;94994.28;5492911;26;20324;-86
2024/04/16 00:57:13;;;;;;;4.07;0.97;;;;;;;4.91;100.00;94990.88;5491464;26;20252;-86
2024/04/16 00:59:41;;;;;;;1.87;0.57;;;;;;;4.94;100.00;95002.72;5492782;26;20573;-86
2024/04/16 01:02:10;;;;;;;2.57;0.70;;;;;;;4.99;100.00;94977.66;5492816;26;20224;-86
2024/04/16 01:04:36;;;;;;;2.70;0.60;;;;;;;4.90;99.51;94991.91;5493463;26;20276;-86
2024/04/16 01:07:05;;;;;;;5.57;0.70;;;;;;;4.88;99.99;95017.34;5493252;26;20784;-86
2024/04/16 01:09:30;;;;;;;1.93;0.70;;;;;;;4.98;100.00;95009.16;5493227;26;20265;-86
2024/04/16 01:12:00;;;;;;;1.33;0.47;;;;;;;5.16;100.00;94988.50;5494071;26;20739;-86
2024/04/16 01:14:26;;;;;;;1.10;0.43;;;;;;;5.29;99.02;94975.44;5493470;26;20517;-87
2024/04/16 01:16:58;;;;;;;5.33;1.13;;;;;;;5.21;98.32;94967.81;5491968;26;20286;-86
2024/04/16 01:19:24;;;;;;;2.10;0.57;;;;;;;5.15;98.31;94981.69;5492142;26;20364;-86
2024/04/16 01:21:52;;;;;;;2.10;0.73;;;;;;;5.07;98.92;94981.84;5491966;26;20237;-87
2024/04/16 01:24:21;;;;;;;3.70;0.80;;;;;;;4.99;99.44;94953.34;5491009;26;20236;-86
2024/04/16 01:26:49;;;;;;;2.83;0.60;;;;;;;4.91;99.76;94983.06;5494636;26;20253;-86
2024/04/16 01:29:15;;;;;;;1.97;0.60;;;;;;;4.88;99.80;94989.47;5495484;26;20227;-86
2024/04/16 01:31:44;;;;;;;3.70;0.83;;;;;;;4.92;99.69;94981.25;5494477;26;20608;-86
2024/04/16 01:34:11;;;;;;;3.03;0.93;;;;;;;4.87;100.00;94974.03;5494011;26;20708;-86
2024/04/16 01:36:40;;;;;;;2.87;0.83;;;;;;;5.02;100.00;94963.41;5494093;26;20729;-87
2024/04/16 01:39:06;;;;;;;3.30;0.90;;;;;;;5.12;100.00;94942.91;5494501;26;20236;-86
2024/04/16 01:41:37;;;;;;;3.40;1.10;;;;;;;5.14;98.99;94962.59;5495246;26;20275;-86
2024/04/16 01:44:04;;;;;;;2.17;0.60;;;;;;;5.07;99.72;94976.63;5494055;26;20259;-86
2024/04/16 01:46:32;;;;;;;4.03;1.17;;;;;;;5.12;99.99;94966.41;5521333;26;20267;-85
2024/04/16 01:48:58;;;;;;;0.97;0.47;;;;;;;5.17;99.21;94956.19;5492041;26;20270;-86
2024/04/16 01:51:27;;;;;;;3.97;0.70;;;;;;;5.08;99.79;94947.75;5491708;26;20233;-86
2024/04/16 01:53:53;;;;;;;3.70;0.80;;;;;;;5.20;99.92;94958.38;5493752;26;20225;-86
2024/04/16 01:56:21;;;;;;;2.93;1.00;;;;;;;5.40;99.47;94959.97;5494213;26;20319;-86
2024/04/16 01:58:50;;;;;;;4.37;1.00;;;;;;;5.33;98.69;94940.09;5495204;26;20288;-86
2024/04/16 02:01:19;;;;;;;2.77;0.80;;;;;;;5.30;98.88;94940.50;5495214;26;20271;-86
2024/04/16 02:03:44;;;;;;;5.73;1.07;;;;;;;5.42;98.12;94947.53;5491946;26;20263;-87
2024/04/16 02:06:13;;;;;;;2.50;1.10;;;;;;;5.30;98.25;94935.28;5494128;26;20280;-87
2024/04/16 02:08:39;;;;;;;3.73;0.90;;;;;;;5.16;99.00;94931.09;5494854;26;20229;-87
2024/04/16 02:11:08;;;;;;;3.27;0.90;;;;;;;5.07;99.22;94932.28;5492167;26;20250;-86
2024/04/16 02:13:34;;;;;;;4.50;1.20;;;;;;;5.18;99.67;94918.63;5522835;26;20272;-86
2024/04/16 02:16:06;;;;;;;4.23;1.33;;;;;;;5.05;99.50;94918.63;5492834;26;20260;-86
2024/04/16 02:18:31;;;;;;;3.73;1.30;;;;;;;5.10;99.19;94924.84;5492883;26;20244;-86
2024/04/16 02:21:00;;;;;;;2.90;1.17;;;;;;;5.16;98.31;94915.44;5493251;26;20284;-86
2024/04/16 02:23:26;;;;;;;7.73;1.20;;;;;;;5.07;98.98;94919.22;5494821;26;20233;-86
2024/04/16 02:25:55;;;;;;;2.57;1.03;;;;;;;5.12;99.54;94914.22;5523538;26;20668;-86
2024/04/16 02:28:21;;;;;;;1.70;0.70;;;;;;;5.19;99.25;94920.22;5496525;26;20248;-86
2024/04/16 02:30:49;;;;;;;8.67;1.07;;;;;;;5.35;99.47;94925.03;5494660;26;20224;-87
2024/04/16 02:33:18;;;;;;;3.03;0.80;;;;;;;5.31;99.24;94931.66;5494800;26;20229;-87
2024/04/16 02:35:47;;;;;;;4.50;1.13;;;;;;;5.29;98.70;94923.25;5492708;26;20700;-86
2024/04/16 02:38:14;;;;;;;3.70;0.70;;;;;;;5.23;98.64;94922.22;5493374;26;20244;-86
2024/04/16 02:40:44;;;;;;;2.50;0.73;;;;;;;5.13;98.83;94934.09;5494939;26;20228;-86
2024/04/16 02:43:10;;;;;;;3.13;0.70;;;;;;;5.07;99.90;94930.47;5493895;26;20615;-87
2024/04/16 02:45:39;;;;;;;4.47;1.00;;;;;;;4.97;100.00;94942.31;5494883;26;20229;-86
2024/04/16 02:48:05;;;;;;;5.27;0.90;;;;;;;4.92;100.00;94945.53;5495713;26;20236;-87
2024/04/16 02:50:37;;;;;;;3.67;1.20;;;;;;;4.80;100.00;94932.28;5493767;26;20236;-87
2024/04/16 02:53:04;;;;;;;3.27;0.97;;;;;;;4.83;99.11;94942.28;5493888;26;20785;-87
2024/04/16 02:55:32;;;;;;;2.13;1.00;;;;;;;4.90;98.30;94934.50;5495968;26;20277;-87
2024/04/16 02:57:58;;;;;;;6.33;1.33;;;;;;;4.87;94.39;94940.91;5495024;26;20275;-87
2024/04/16 03:00:27;;;;;;;5.33;0.80;;;;;;;4.93;93.84;94933.25;5497077;26;20276;-87
2024/04/16 03:02:53;;;;;;;3.90;0.97;;;;;;;4.94;94.15;94950.53;5495516;26;20233;-87
2024/04/16 03:05:21;;;;;;;1.67;0.90;;;;;;;4.90;93.36;94937.88;5496528;26;20355;-87
2024/04/16 03:07:51;;;;;;;4.57;0.97;;;;;;;4.95;93.80;94942.50;5496218;26;20240;-86
2024/04/16 03:10:20;;;;;;;6.83;1.27;;;;;;;4.95;93.89;94937.28;5496625;26;20224;-86
2024/04/16 03:12:46;;;;;;;5.67;0.87;;;;;;;4.94;94.06;94930.47;5496808;26;20224;-86
2024/04/16 03:15:14;;;;;;;3.43;0.90;;;;;;;4.96;94.52;94940.72;5493053;26;20612;-86
2024/04/16 03:17:41;;;;;;;3.10;0.70;;;;;;;4.98;93.66;94944.72;5491520;26;20708;-86
2024/04/16 03:20:10;;;;;;;3.60;1.40;;;;;;;4.93;93.63;94939.28;5494858;26;20224;-86
2024/04/16 03:22:36;;;;;;;6.90;0.83;;;;;;;4.86;90.55;94930.66;5494850;26;20705;-85
2024/04/16 03:25:08;;;;;;;4.60;0.80;;;;;;;4.84;88.55;94943.91;5493759;26;20289;-86
2024/04/16 03:27:34;;;;;;;3.07;0.87;;;;;;;4.76;88.18;94931.06;5490342;26;20244;-86
2024/04/16 03:30:02;;;;;;;4.83;1.10;;;;;;;4.73;86.86;94933.25;5489970;26;20601;-86
2024/04/16 03:32:28;;;;;;;1.00;0.80;;;;;;;4.72;86.16;94936.88;5490364;26;20236;-86
2024/04/16 03:34:57;;;;;;;2.90;0.70;;;;;;;4.69;85.67;94947.72;5490371;26;20616;-86
2024/04/16 03:37:25;;;;;;;4.20;0.60;;;;;;;4.71;86.03;94943.09;5491228;26;20559;-86
2024/04/16 03:39:54;;;;;;;6.27;1.23;;;;;;;4.67;87.32;94940.06;5490496;26;20263;-85
2024/04/16 03:42:25;;;;;;;0.93;0.57;;;;;;;4.60;86.32;94936.66;5489170;26;20236;-86
2024/04/16 03:44:55;;;;;;;3.87;0.80;;;;;;;4.68;84.93;94938.28;5490570;26;20228;-86
2024/04/16 03:47:21;;;;;;;6.63;1.10;;;;;;;4.58;85.71;94935.22;5490817;26;20775;-86
2024/04/16 03:49:49;;;;;;;5.47;1.00;;;;;;;4.56;86.24;94925.00;5490516;26;20280;-86
2024/04/16 03:52:15;;;;;;;8.03;1.20;;;;;;;4.51;86.26;94935.22;5488687;26;20237;-86
2024/04/16 03:54:44;;;;;;;2.53;0.83;;;;;;;4.59;86.48;94929.03;5519058;26;20293;-86
2024/04/16 03:57:10;;;;;;;5.47;1.13;;;;;;;4.55;86.65;94926.00;5518267;26;20240;-86
2024/04/16 04:00:59;;;;;;;6.90;0.93;;;;;;;4.60;86.43;94941.03;5526970;25;20287;-86
2024/04/16 04:02:27;;;;;;;5.33;1.23;;;;;;;4.56;86.35;94924.19;5528399;26;20258;-86
2024/04/16 04:04:55;;;;;;;3.63;0.90;;;;;;;4.45;85.68;94925.59;5524583;26;20231;-85
2024/04/16 04:07:24;;;;;;;3.43;0.90;;;;;;;4.47;86.47;94928.81;5526476;25;20287;-86
2024/04/16 04:09:50;;;;;;;3.27;1.30;;;;;;;4.46;86.07;94932.41;5528951;25;20270;-86
2024/04/16 04:12:19;;;;;;;3.70;1.13;;;;;;;4.42;86.38;94925.16;5528307;26;20705;-86
2024/04/16 04:14:47;;;;;;;5.73;1.33;;;;;;;4.51;86.24;94940.44;5528117;26;20235;-85
2024/04/16 04:17:16;;;;;;;8.13;1.20;;;;;;;4.53;85.75;94920.19;5531108;25;20569;-86
2024/04/16 04:19:41;;;;;;;1.60;0.90;;;;;;;4.48;86.57;94914.75;5530339;25;20615;-86
2024/04/16 04:22:10;;;;;;;7.17;1.40;;;;;;;4.47;85.31;94917.56;5528600;26;20287;-86
2024/04/16 04:24:36;;;;;;;7.67;1.50;;;;;;;4.49;85.57;94924.19;5529902;25;20227;-86
2024/04/16 04:27:05;;;;;;;4.17;0.80;;;;;;;4.50;85.57;94923.19;5528348;26;20281;-86
2024/04/16 04:29:33;;;;;;;4.63;1.30;;;;;;;4.48;85.20;94927.00;5528316;26;20696;-86
2024/04/16 04:32:04;;;;;;;4.80;1.87;;;;;;;4.44;85.43;94931.00;5530161;25;20687;-86
2024/04/16 04:34:30;;;;;;;6.67;1.77;;;;;;;4.44;85.92;94929.19;5530056;25;20504;-86
2024/04/16 04:36:58;;;;;;;10.37;1.20;;;;;;;4.42;86.01;94943.41;5531000;25;20456;-86
2024/04/16 04:39:24;;;;;;;3.13;0.97;;;;;;;4.49;85.31;94923.38;5530692;25;20554;-86
2024/04/16 04:41:53;;;;;;;5.33;1.07;;;;;;;4.41;86.53;94923.59;5530401;26;20312;-86
2024/04/16 04:44:19;;;;;;;6.60;1.63;;;;;;;4.39;86.56;94931.56;5534192;25;20227;-86
2024/04/16 04:46:47;;;;;;;2.73;1.30;;;;;;;4.41;86.57;94928.78;5529789;25;20315;-86
2024/04/16 04:49:16;;;;;;;6.40;1.47;;;;;;;4.39;87.27;94931.56;5529606;26;20258;-86
2024/04/16 04:51:44;;;;;;;5.10;1.03;;;;;;;4.42;87.25;94936.41;5531119;25;20227;-86
2024/04/16 04:54:10;;;;;;;2.80;0.90;;;;;;;4.37;87.00;94933.59;5530909;25;20445;-86
2024/04/16 04:56:39;;;;;;;10.63;1.17;;;;;;;4.46;87.44;94931.59;5531435;25;20283;-86
2024/04/16 04:59:05;;;;;;;5.00;1.50;;;;;;;4.47;87.11;94947.06;5529011;26;20315;-86
2024/04/16 05:01:34;;;;;;;5.27;1.10;;;;;;;4.47;87.37;94934.03;5531402;25;20297;-86
2024/04/16 05:04:02;;;;;;;5.23;1.40;;;;;;;4.51;86.83;94919.56;5529702;25;20270;-86
2024/04/16 05:06:32;;;;;;;7.87;1.80;;;;;;;4.55;86.75;94933.03;5528756;26;20239;-85
2024/04/16 05:09:00;;;;;;;5.87;1.33;;;;;;;4.57;86.32;94933.63;5530753;25;20558;-86
2024/04/16 05:11:26;;;;;;;4.53;1.07;;;;;;;4.62;86.10;94947.69;5528341;26;20931;-85
2024/04/16 05:13:55;;;;;;;7.50;1.90;;;;;;;4.60;86.56;94941.03;5529634;26;20519;-86
2024/04/16 05:16:21;;;;;;;7.30;1.80;;;;;;;4.70;86.80;94947.50;5535567;25;20287;-86
2024/04/16 05:18:50;;;;;;;5.97;1.30;;;;;;;4.72;87.00;94942.06;5530920;25;20371;-86
2024/04/16 05:21:16;;;;;;;5.10;1.30;;;;;;;4.77;86.58;94943.09;5515942;25;20728;-86
2024/04/16 05:23:48;;;;;;;3.00;1.00;;;;;;;4.81;86.31;94951.31;5510434;26;20309;-85
2024/04/16 05:26:14;;;;;;;6.50;1.40;;;;;;;4.89;86.27;94946.72;5514463;26;20248;-86
2024/04/16 05:28:43;;;;;;;6.53;1.10;;;;;;;4.89;86.14;94938.91;5520936;25;20304;-86
2024/04/16 05:31:09;;;;;;;3.23;1.60;;;;;;;4.99;86.02;94945.53;5505430;26;20279;-86
2024/04/16 05:33:37;;;;;;;6.07;1.20;;;;;;;4.95;85.02;94942.50;5499730;26;20244;-86
2024/04/16 05:36:04;;;;;;;7.50;1.40;;;;;;;4.92;85.25;94944.72;5512575;26;20724;-86
2024/04/16 05:38:32;;;;;;;7.77;1.20;;;;;;;5.08;84.62;94944.31;5503555;26;20244;-85
2024/04/16 05:41:02;;;;;;;4.23;0.90;;;;;;;4.99;84.02;94948.16;5519397;26;20240;-86
2024/04/16 05:43:30;;;;;;;4.03;0.70;;;;;;;5.00;83.89;94954.94;5514380;26;20296;-85
2024/04/16 05:45:56;;;;;;;5.47;1.17;;;;;;;5.10;82.51;94960.59;5521090;25;20239;-86
2024/04/16 05:48:25;;;;;;;3.00;0.93;;;;;;;5.21;81.85;94960.78;5505097;25;20311;-86
2024/04/16 05:50:51;;;;;;;8.23;1.50;;;;;;;5.28;81.31;94942.50;5494669;26;20245;-85
2024/04/16 05:53:19;;;;;;;3.53;1.00;;;;;;;5.35;81.28;94958.97;5522527;26;20278;-85
2024/04/16 05:55:45;;;;;;;4.80;1.10;;;;;;;5.43;81.26;94943.13;5502845;26;20279;-86
2024/04/16 05:58:17;;;;;;;3.10;0.90;;;;;;;5.51;81.12;94950.72;5511099;26;20706;-86
2024/04/16 06:00:43;;;;;;;3.57;0.90;;;;;;;5.54;81.39;94952.94;5519088;25;20248;-86
2024/04/16 06:03:12;;;;;;;4.03;1.00;;;;;;;5.50;80.83;94956.97;5523146;26;20259;-86
2024/04/16 06:05:38;;;;;;;9.77;1.37;;;;;;;5.49;80.61;94957.97;5506143;25;20241;-86
2024/04/16 06:08:07;;;;;;;5.43;1.37;;;;;;;5.61;80.47;94948.50;5529184;26;20624;-85
2024/04/16 06:10:33;;;;;;;6.23;1.30;;;;;;;5.70;80.47;94942.06;5510890;26;20279;-86
2024/04/16 06:13:02;;;;;;;10.00;1.50;;;;;;;5.60;80.45;94952.91;5517628;26;20248;-86
2024/04/16 06:15:30;;;;;;;3.20;1.07;;;;;;;5.73;80.41;94954.72;5515015;25;20740;-86
2024/04/16 06:17:59;;;;;;;3.67;0.90;;;;;;;5.58;79.51;94948.91;5502768;26;20296;-86
2024/04/16 06:20:25;;;;;;;4.30;1.23;;;;;;;5.71;79.03;94943.66;5496782;26;20286;-86
2024/04/16 06:22:53;;;;;;;3.90;1.03;;;;;;;5.88;78.97;94936.22;5519689;26;20582;-86
2024/04/16 06:25:19;;;;;;;6.27;0.90;;;;;;;5.90;78.73;94921.16;5511787;26;20278;-86
2024/04/16 06:27:49;;;;;;;4.97;0.80;;;;;;;6.02;77.96;94933.34;5514458;26;20288;-86
2024/04/16 06:30:15;;;;;;;5.13;1.13;;;;;;;6.08;76.75;94929.94;5509452;25;20237;-86
2024/04/16 06:32:46;;;;;;;7.17;1.07;;;;;;;5.95;76.86;94931.78;5493370;26;20301;-86
2024/04/16 06:35:13;;;;;;;7.83;1.37;;;;;;;5.96;77.39;94943.81;5492666;26;20232;-86
2024/04/16 06:37:41;;;;;;;5.03;1.13;;;;;;;6.02;77.27;94932.56;5493856;26;20248;-86
2024/04/16 06:40:08;;;;;;;3.60;1.20;;;;;;;5.95;77.58;94918.72;5494468;26;20228;-86
2024/04/16 06:42:37;;;;;;;2.27;1.00;;;;;;;6.01;77.60;94920.50;5491453;26;20280;-86
2024/04/16 06:45:03;;;;;;;4.10;1.00;;;;;;;6.05;77.64;94932.13;5493332;26;20768;-85
2024/04/16 06:47:33;;;;;;;3.47;1.27;;;;;;;6.05;77.06;94924.28;5491202;26;20303;-86
2024/04/16 06:50:02;;;;;;;3.03;1.00;;;;;;;6.08;76.65;94916.03;5492106;26;20345;-85
2024/04/16 06:52:31;;;;;;;1.83;0.60;;;;;;;6.15;76.90;94915.00;5495303;26;20259;-86
2024/04/16 06:54:58;;;;;;;5.17;1.27;;;;;;;6.25;75.82;94911.97;5495086;26;20225;-86
2024/04/16 06:57:26;;;;;;;3.57;0.73;;;;;;;6.31;75.02;94915.53;5495531;26;20252;-86
2024/04/16 06:59:56;;;;;;;2.23;1.20;;;;;;;6.37;74.28;94917.31;5495074;26;20228;-86
2024/04/16 07:02:22;;;;;;;3.33;0.50;;;;;;;6.32;75.09;94919.75;5493967;26;20338;-86
2024/04/16 07:04:50;;;;;;;5.27;1.20;;;;;;;6.47;76.50;94918.47;5492968;26;20255;-86
2024/04/16 07:07:19;;;;;;;9.13;1.13;;;;;;;6.42;74.35;94915.66;5494124;26;20240;-86
2024/04/16 07:09:47;;;;;;;6.13;1.53;;;;;;;6.55;73.65;94914.81;5491940;26;20259;-86
2024/04/16 07:12:13;;;;;;;2.77;0.67;;;;;;;6.57;72.32;94923.25;5494091;26;20597;-86
2024/04/16 07:14:42;;;;;;;2.37;1.00;;;;;;;6.66;72.18;94922.78;5491741;26;20245;-87
2024/04/16 07:17:08;;;;;;;5.00;2.57;;;;;;;6.71;71.47;94932.63;5493760;26;20244;-86
2024/04/16 07:19:36;;;;;;;4.43;0.70;;;;;;;6.40;71.61;94929.97;5493535;26;20662;-86
2024/04/16 07:22:02;;;;;;;3.00;0.97;;;;;;;6.42;71.87;94931.38;5496044;26;20270;-86
2024/04/16 07:24:33;;;;;;;6.10;0.70;;;;;;;6.51;71.55;94921.47;5493552;26;20236;-85
2024/04/16 07:26:59;;;;;;;5.80;0.93;;;;;;;6.59;70.20;94921.22;5496837;26;20282;-86
2024/04/16 07:29:28;;;;;;;4.17;0.80;;;;;;;6.68;69.50;94914.72;5497117;26;20276;-85
2024/04/16 07:31:54;;;;;;;2.80;0.97;;;;;;;6.78;69.08;94920.31;5496559;26;20259;-85
2024/04/16 07:34:22;;;;;;;1.10;0.63;;;;;;;7.02;68.77;94913.50;5494886;26;20276;-85
2024/04/16 07:36:48;;;;;;;3.40;0.97;;;;;;;7.11;69.18;94907.78;5496330;26;20240;-85
2024/04/16 07:39:17;;;;;;;3.33;0.80;;;;;;;7.45;69.12;94901.22;5497356;26;20229;-85
2024/04/16 07:41:47;;;;;;;2.60;0.77;;;;;;;7.18;68.43;94910.34;5498316;26;20225;-85
2024/04/16 07:44:17;;;;;;;4.20;0.77;;;;;;;7.19;68.30;94901.47;5495063;26;20570;-86
2024/04/16 07:46:43;;;;;;;4.90;1.00;;;;;;;7.20;68.64;94897.84;5499930;26;20240;-86
2024/04/16 07:49:11;;;;;;;3.87;0.93;;;;;;;7.27;68.36;94911.66;5494779;26;20259;-86
2024/04/16 07:51:38;;;;;;;3.90;0.90;;;;;;;7.46;68.92;94889.75;5494983;26;20754;-85
2024/04/16 07:54:06;;;;;;;4.47;1.37;;;;;;;7.61;68.45;94888.38;5496358;26;20344;-86
2024/04/16 07:56:32;;;;;;;2.70;0.80;;;;;;;7.80;68.48;94904.91;5497112;26;20232;-85
2024/04/16 07:59:03;;;;;;;3.53;0.60;;;;;;;7.81;67.92;94922.25;5498697;26;20327;-85
2024/04/16 08:01:29;;;;;;;1.90;0.60;;;;;;;7.44;67.15;94891.78;5496447;26;20270;-85
2024/04/16 08:03:57;;;;;;;3.60;1.00;;;;;;;7.15;67.61;94898.47;5496176;26;20288;-85
2024/04/16 08:06:23;;;;;;;3.17;0.70;;;;;;;7.01;67.09;94898.78;5496780;26;20263;-85
2024/04/16 08:08:56;;;;;;;4.60;0.70;;;;;;;7.12;68.17;94898.13;5497535;26;20292;-86
2024/04/16 08:11:22;;;;;;;4.33;0.80;;;;;;;7.25;67.65;94890.13;5498836;26;20263;-85
2024/04/16 08:13:50;;;;;;;5.03;0.97;;;;;;;7.54;68.02;94887.63;5497678;26;20228;-86
2024/04/16 08:16:19;;;;;;;1.73;0.63;;;;;;;7.58;67.36;94888.78;5494317;26;20232;-85
2024/04/16 08:18:47;;;;;;;3.37;0.63;;;;;;;7.57;67.41;94886.41;5494784;26;20329;-85
2024/04/16 08:21:13;;;;;;;7.93;0.83;;;;;;;7.66;67.15;94919.16;5494703;26;20233;-85
2024/04/16 08:23:42;;;;;;;4.63;0.83;;;;;;;7.68;67.44;94912.69;5495249;26;20623;-85
2024/04/16 08:26:08;;;;;;;0.90;0.50;;;;;;;7.76;68.15;94911.59;5496143;26;20224;-85
2024/04/16 08:28:36;;;;;;;7.17;0.87;;;;;;;7.87;68.85;94918.75;5495793;26;20768;-85
2024/04/16 08:31:02;;;;;;;3.23;1.00;;;;;;;8.21;67.24;94891.91;5495244;26;20275;-85
2024/04/16 08:33:34;;;;;;;4.47;1.10;;;;;;;8.39;67.70;94879.81;5495211;26;20248;-85
2024/04/16 08:35:59;;;;;;;2.97;0.90;;;;;;;8.22;66.24;94887.47;5494903;26;20292;-85
2024/04/16 08:38:28;;;;;;;3.77;0.73;;;;;;;7.97;66.86;94890.19;5494777;26;20354;-85
2024/04/16 08:40:56;;;;;;;3.33;1.13;;;;;;;7.97;66.28;94899.88;5494511;26;20263;-85
2024/04/16 08:43:25;;;;;;;1.97;0.80;;;;;;;8.21;66.88;94876.16;5494628;26;20267;-84
2024/04/16 08:45:51;;;;;;;5.20;1.00;;;;;;;8.03;65.60;94885.88;5492421;26;20228;-85
2024/04/16 08:48:20;;;;;;;2.20;0.80;;;;;;;7.89;65.71;94877.38;5493983;26;20237;-85
2024/04/16 08:50:48;;;;;;;2.83;0.87;;;;;;;7.77;65.17;94879.13;5494196;26;20315;-85
2024/04/16 08:53:17;;;;;;;4.67;0.73;;;;;;;7.83;65.70;94866.97;5494664;26;20805;-85
2024/04/16 08:55:43;;;;;;;5.23;0.70;;;;;;;8.11;65.18;94869.84;5492009;26;20232;-85
2024/04/16 08:58:12;;;;;;;5.77;0.80;;;;;;;7.87;64.98;94892.53;5494797;26;20316;-84
2024/04/16 09:00:37;;;;;;;3.83;0.77;;;;;;;8.10;65.35;94886.59;5495060;26;20225;-86
2024/04/16 09:03:06;;;;;;;2.67;0.67;;;;;;;8.06;64.70;94867.09;5494753;26;20304;-85
2024/04/16 09:05:32;;;;;;;2.77;0.80;;;;;;;8.13;65.55;94866.00;5493348;26;20225;-85
2024/04/16 09:08:04;;;;;;;4.73;0.73;;;;;;;8.35;65.13;94861.88;5496072;26;20820;-85
2024/04/16 09:10:29;;;;;;;2.23;0.80;;;;;;;8.38;64.81;94862.50;5495595;26;20228;-85
2024/04/16 09:12:58;;;;;;;1.57;0.27;;;;;;;8.26;65.09;94863.22;5494949;26;20288;-85
2024/04/16 09:15:24;;;;;;;3.40;0.63;;;;;;;8.13;65.93;94879.13;5494712;26;20228;-85
2024/04/16 09:17:53;;;;;;;1.90;0.63;;;;;;;8.17;66.13;94882.88;5495757;26;20296;-85
2024/04/16 09:20:19;;;;;;;3.13;0.67;;;;;;;8.16;66.22;94893.59;5495698;26;20232;-84
2024/04/16 09:22:49;;;;;;;4.70;0.63;;;;;;;8.02;66.19;94884.28;5492509;26;20232;-85
2024/04/16 09:25:18;;;;;;;2.30;1.00;;;;;;;8.43;67.37;94899.34;5494114;26;20283;-84
2024/04/16 09:27:48;;;;;;;2.50;0.60;;;;;;;8.26;66.61;94880.81;5495243;26;20236;-85
2024/04/16 09:30:14;;;;;;;1.63;0.50;;;;;;;8.23;66.80;94889.09;5496185;26;20267;-85
2024/04/16 09:32:44;;;;;;;3.77;0.90;;;;;;;8.38;67.11;94907.09;5492102;26;20263;-84
2024/04/16 09:35:10;;;;;;;3.73;0.80;;;;;;;8.67;66.85;94891.34;5492271;26;20263;-85
2024/04/16 09:37:38;;;;;;;2.37;0.53;;;;;;;8.89;66.99;94881.13;5491452;26;20716;-84
2024/04/16 09:40:06;;;;;;;2.60;0.53;;;;;;;8.92;65.73;94878.84;5491681;26;20236;-85
2024/04/16 09:42:37;;;;;;;3.00;0.50;;;;;;;8.76;66.37;94903.13;5493103;26;20237;-85
2024/04/16 09:45:04;;;;;;;4.17;0.57;;;;;;;8.38;66.26;94893.97;5494330;26;20225;-85
2024/04/16 09:47:33;;;;;;;2.40;0.77;;;;;;;8.72;67.74;94888.84;5496240;26;20264;-85
2024/04/16 09:49:58;;;;;;;1.70;0.50;;;;;;;8.70;67.42;94883.03;5496021;26;20229;-85
2024/04/16 09:52:27;;;;;;;2.97;0.70;;;;;;;8.86;69.00;94895.50;5493690;26;20289;-85
2024/04/16 09:54:53;;;;;;;2.70;0.70;;;;;;;8.68;68.66;94892.94;5492602;26;20221;-85
2024/04/16 09:57:22;;;;;;;3.20;0.80;;;;;;;8.65;69.37;94906.53;5495675;26;20595;-85
2024/04/16 09:59:51;;;;;;;3.37;0.70;;;;;;;8.50;69.66;94902.69;5491932;26;20263;-84
2024/04/16 10:02:20;;;;;;;0.97;0.50;;;;;;;8.71;69.60;94900.38;5491308;26;20244;-84
2024/04/16 10:04:45;;;;;;;1.47;0.70;;;;;;;8.69;68.13;94912.91;5507321;26;20720;-85
2024/04/16 10:07:14;;;;;;;2.03;0.40;;;;;;;8.79;68.62;94891.38;5505968;25;20304;-85
2024/04/16 10:09:40;;;;;;;2.87;0.80;;;;;;;8.66;68.98;94915.97;5501420;26;20244;-85
2024/04/16 10:12:09;;;;;;;4.50;0.53;;;;;;;8.56;69.21;94907.84;5518514;26;20240;-85
2024/04/16 10:14:35;;;;;;;0.83;0.57;;;;;;;8.63;70.08;94889.38;5499864;26;20576;-85
2024/04/16 10:17:06;;;;;;;2.07;0.50;;;;;;;8.80;69.87;94901.66;5507558;26;20264;-85
2024/04/16 10:19:32;;;;;;;1.57;0.40;;;;;;;8.72;69.25;94888.84;5502731;25;20240;-85
2024/04/16 10:22:02;;;;;;;3.17;0.67;;;;;;;8.63;69.83;94894.63;5527099;26;20315;-85
2024/04/16 10:24:29;;;;;;;1.53;0.60;;;;;;;8.54;70.04;94881.00;5518714;25;20286;-85
2024/04/16 10:26:59;;;;;;;1.30;0.50;;;;;;;8.62;70.61;94899.09;5500384;26;20332;-85
2024/04/16 10:29:25;;;;;;;2.93;0.63;;;;;;;8.74;71.26;94878.13;5499093;25;20290;-86
2024/04/16 10:31:54;;;;;;;1.77;0.67;;;;;;;9.26;70.41;94864.16;5513340;26;20275;-85
2024/04/16 10:34:23;;;;;;;3.20;0.80;;;;;;;9.34;69.87;94866.44;5506481;26;20332;-85
2024/04/16 10:36:52;;;;;;;4.90;0.70;;;;;;;9.24;69.28;94876.69;5511854;25;20257;-86
2024/04/16 10:39:18;;;;;;;3.57;0.70;;;;;;;8.96;68.75;94858.19;5516716;25;20239;-85
2024/04/16 10:41:53;;;;;;;2.13;0.53;;;;;;;9.30;69.70;94867.94;5494632;26;20287;-85
2024/04/16 10:44:20;;;;;;;1.23;0.50;;;;;;;9.41;68.83;94859.25;5511970;26;20244;-85
2024/04/16 10:46:49;;;;;;;3.13;0.57;;;;;;;9.25;69.15;94861.75;5501397;26;20240;-85
2024/04/16 10:49:15;;;;;;;3.07;0.60;;;;;;;9.23;69.63;94855.94;5514611;26;20244;-85
2024/04/16 10:51:46;;;;;;;4.83;0.47;;;;;;;9.34;69.98;94857.75;5494371;26;20270;-85
2024/04/16 10:54:12;;;;;;;1.93;0.50;;;;;;;9.31;69.28;94860.84;5503459;26;20245;-85
2024/04/16 10:56:40;;;;;;;2.27;0.50;;;;;;;9.23;68.71;94861.19;5492353;26;20297;-85
2024/04/16 10:59:06;;;;;;;1.33;0.27;;;;;;;9.29;69.43;94857.66;5493193;26;20264;-85
2024/04/16 11:01:35;;;;;;;0.83;0.30;;;;;;;9.02;69.35;94859.91;5494055;26;20233;-86
2024/04/16 11:04:06;;;;;;;1.23;0.40;;;;;;;9.10;69.06;94850.91;5493429;26;20233;-85
2024/04/16 11:06:34;;;;;;;0.67;0.30;;;;;;;9.30;69.46;94832.97;5494277;26;20240;-85
2024/04/16 11:09:04;;;;;;;1.07;0.50;;;;;;;9.28;68.95;94837.66;5493347;26;20280;-86
2024/04/16 11:11:32;;;;;;;0.50;0.40;;;;;;;9.22;68.48;94838.56;5493176;26;20645;-85
2024/04/16 11:13:58;;;;;;;1.50;0.50;;;;;;;9.56;68.83;94833.31;5495310;26;20225;-86
2024/04/16 11:16:27;;;;;;;1.10;0.30;;;;;;;9.48;67.36;94845.97;5493569;26;20606;-85
2024/04/16 11:18:53;;;;;;;0.93;0.60;;;;;;;9.47;68.45;94813.66;5498910;26;20228;-85
2024/04/16 11:21:21;;;;;;;3.20;0.50;;;;;;;9.52;69.39;94841.88;5498930;26;20228;-85
2024/04/16 11:23:47;;;;;;;0.77;0.40;;;;;;;9.51;70.10;94829.75;5498438;26;20270;-86
2024/04/16 11:26:19;;;;;;;1.03;0.37;;;;;;;9.81;71.15;94838.28;5499014;26;20280;-85
2024/04/16 11:28:45;;;;;;;1.40;0.50;;;;;;;9.70;70.80;94832.03;5497374;26;20232;-85
2024/04/16 11:31:13;;;;;;;0.50;0.17;;;;;;;9.63;69.28;94841.06;5497452;26;20772;-85
2024/04/16 11:33:39;;;;;;;2.10;0.53;;;;;;;9.65;69.61;94844.25;5498358;26;20521;-85
2024/04/16 11:36:08;;;;;;;0.27;0.20;;;;;;;9.68;68.92;94862.97;5500177;26;20300;-84
2024/04/16 11:38:34;;;;;;;0.60;0.43;;;;;;;9.72;69.40;94874.66;5497810;26;20237;-84
2024/04/16 11:41:03;;;;;;;0.40;0.20;;;;;;;9.69;68.52;94854.06;5500797;26;20220;-85
2024/04/16 11:43:32;;;;;;;0.30;0.20;;;;;;;9.42;68.69;94875.81;5499584;26;20228;-85